createdAt,value
2022-11-28T00:00:29.272Z,6.50
2022-11-28T00:04:30.368Z,6.20
2022-11-28T00:08:31.930Z,6.00
2022-11-28T00:12:34.459Z,6.10
2022-11-28T00:16:36.430Z,6.10
2022-11-28T00:20:37.629Z,6.30
2022-11-28T00:24:39.510Z,7.10
2022-11-28T00:28:40.753Z,6.80
2022-11-28T00:32:41.881Z,5.90
2022-11-28T00:36:44.909Z,5.50
2022-11-28T00:40:46.219Z,6.20
2022-11-28T00:44:48.367Z,6.60
2022-11-28T00:48:50.280Z,5.60
2022-11-28T00:52:51.441Z,5.20
2022-11-28T00:56:52.585Z,5.30
2022-11-28T01:00:53.958Z,6.30
2022-11-28T01:04:54.903Z,6.80
2022-11-28T01:08:58.900Z,6.80
2022-11-28T01:12:59.877Z,6.80
2022-11-28T01:17:00.935Z,6.80
2022-11-28T01:21:02.300Z,6.60
2022-11-28T01:25:03.809Z,5.80
2022-11-28T01:29:05.477Z,6.10
2022-11-28T01:33:06.574Z,6.00
2022-11-28T01:37:07.623Z,6.50
2022-11-28T01:41:09.869Z,5.40
2022-11-28T01:45:27.233Z,5.60
2022-11-28T01:49:32.132Z,6.00
2022-11-28T01:53:35.867Z,5.10
2022-11-28T01:57:36.849Z,5.80
2022-11-28T02:01:38.993Z,6.10
2022-11-28T02:05:40.834Z,6.50
2022-11-28T02:09:41.908Z,7.50
2022-11-28T02:14:07.425Z,7.80
2022-11-28T02:18:40.105Z,7.20
2022-11-28T02:22:51.207Z,7.90
2022-11-28T02:27:10.688Z,7.20
2022-11-28T02:31:18.614Z,7.60
2022-11-28T02:35:26.522Z,7.50
2022-11-28T02:39:46.782Z,7.50
2022-11-28T02:44:04.157Z,7.90
2022-11-28T02:48:10.722Z,7.00
2022-11-28T02:52:18.464Z,6.90
2022-11-28T02:56:19.927Z,6.30
2022-11-28T03:00:25.303Z,5.40
2022-11-28T03:05:03.979Z,5.80
2022-11-28T03:09:20.586Z,5.30
2022-11-28T03:13:28.282Z,6.50
2022-11-28T03:17:39.007Z,5.60
2022-11-28T03:21:46.557Z,5.80
2022-11-28T03:26:03.621Z,6.20
2022-11-28T03:30:20.046Z,6.10
2022-11-28T03:34:24.592Z,5.90
2022-11-28T03:38:29.652Z,5.90
2022-11-28T03:42:34.647Z,6.00
2022-11-28T03:46:39.702Z,5.50
2022-11-28T03:50:47.624Z,5.70
2022-11-28T03:54:52.444Z,6.00
2022-11-28T03:59:02.701Z,5.80
2022-11-28T04:03:22.493Z,4.90
2022-11-28T04:07:30.585Z,4.60
2022-11-28T04:11:35.420Z,4.60
2022-11-28T04:15:46.581Z,5.30
2022-11-28T04:19:54.584Z,6.10
2022-11-28T04:23:59.408Z,5.10
2022-11-28T04:28:04.263Z,5.40
2022-11-28T04:32:06.637Z,4.40
2022-11-28T04:36:10.364Z,5.30
2022-11-28T04:40:12.581Z,5.60
2022-11-28T04:44:21.292Z,5.50
2022-11-28T04:48:22.834Z,5.30
2022-11-28T04:52:48.759Z,4.90
2022-11-28T04:56:53.735Z,5.70
2022-11-28T05:00:55.483Z,6.50
2022-11-28T05:04:57.698Z,5.80
2022-11-28T05:08:59.354Z,5.90
2022-11-28T05:13:00.365Z,6.10
2022-11-28T05:17:01.638Z,6.00
2022-11-28T05:21:04.861Z,5.30
2022-11-28T05:25:06.706Z,5.90
2022-11-28T05:29:07.905Z,5.70
2022-11-28T05:33:09.148Z,6.10
2022-11-28T05:37:10.292Z,6.10
2022-11-28T05:41:20.965Z,5.90
2022-11-28T05:45:22.363Z,5.70
2022-11-28T05:49:25.079Z,5.70
2022-11-28T05:53:26.328Z,6.10
2022-11-28T05:57:29.464Z,6.30
2022-11-28T06:01:30.587Z,5.90
2022-11-28T06:05:46.704Z,5.60
2022-11-28T06:09:35.072Z,6.00
2022-11-28T06:13:36.394Z,5.80
2022-11-28T06:17:37.647Z,5.50
2022-11-28T06:21:39.303Z,6.30
2022-11-28T06:25:40.504Z,6.30
2022-11-28T06:29:41.873Z,5.80
2022-11-28T06:33:43.317Z,6.20
2022-11-28T06:37:44.365Z,5.60
2022-11-28T06:41:45.580Z,5.80
2022-11-28T06:45:46.731Z,5.50
2022-11-28T06:49:48.825Z,5.70
2022-11-28T06:53:50.303Z,6.20
2022-11-28T06:57:51.541Z,4.90
2022-11-28T07:01:52.674Z,6.50
2022-11-28T07:05:54.060Z,6.90
2022-11-28T07:09:55.441Z,6.70
2022-11-28T07:13:57.846Z,7.80
2022-11-28T07:17:59.151Z,7.80
2022-11-28T07:22:00.523Z,8.00
2022-11-28T07:26:04.543Z,7.70
2022-11-28T07:30:06.818Z,7.10
2022-11-28T07:34:09.203Z,6.50
2022-11-28T07:38:10.331Z,6.90
2022-11-28T07:42:11.946Z,6.30
2022-11-28T07:46:16.465Z,5.30
2022-11-28T07:50:17.914Z,5.20
2022-11-28T07:54:19.158Z,5.20
2022-11-28T07:58:21.779Z,5.70
2022-11-28T08:02:22.981Z,6.80
2022-11-28T08:06:26.670Z,6.70
2022-11-28T08:10:27.963Z,6.10
2022-11-28T08:14:29.580Z,6.20
2022-11-28T08:18:30.819Z,5.40
2022-11-28T08:22:33.000Z,5.30
2022-11-28T08:26:34.893Z,4.30
2022-11-28T08:30:36.220Z,4.30
2022-11-28T08:34:37.332Z,5.40
2022-11-28T08:38:39.494Z,7.10
2022-11-28T08:42:40.662Z,7.40
2022-11-28T08:46:42.265Z,7.90
2022-11-28T08:50:48.232Z,8.10
2022-11-28T08:54:49.446Z,8.30
2022-11-28T08:58:50.594Z,7.80
2022-11-28T09:02:51.922Z,7.60
2022-11-28T09:06:53.332Z,7.80
2022-11-28T09:10:54.666Z,7.40
2022-11-28T09:14:55.818Z,7.80
2022-11-28T09:18:58.739Z,7.40
2022-11-28T09:23:00.824Z,7.60
2022-11-28T09:27:02.313Z,7.50
2022-11-28T09:31:05.217Z,7.30
2022-11-28T09:35:06.873Z,7.90
2022-11-28T09:39:08.087Z,7.40
2022-11-28T09:43:22.301Z,7.90
2022-11-28T09:47:29.613Z,7.80
2022-11-28T09:51:55.890Z,8.20
2022-11-28T09:56:03.905Z,8.80
2022-11-28T10:00:06.469Z,8.10
2022-11-28T10:04:32.905Z,8.20
2022-11-28T10:08:55.870Z,8.80
2022-11-28T10:13:23.633Z,9.30
2022-11-28T10:17:55.942Z,8.70
2022-11-28T10:22:00.325Z,8.20
2022-11-28T10:26:07.880Z,8.70
2022-11-28T10:30:12.928Z,7.60
2022-11-28T10:34:32.764Z,7.80
2022-11-28T10:38:36.231Z,8.40
2022-11-28T10:43:02.524Z,8.80
2022-11-28T10:47:27.019Z,8.40
2022-11-28T10:51:32.073Z,8.10
2022-11-28T10:56:11.606Z,8.60
2022-11-28T11:00:21.878Z,9.10
2022-11-28T11:04:28.286Z,8.20
2022-11-28T11:08:35.572Z,9.00
2022-11-28T11:12:37.084Z,8.90
2022-11-28T11:16:50.753Z,8.90
2022-11-28T11:20:54.125Z,7.30
2022-11-28T11:25:08.176Z,7.90
2022-11-28T11:29:31.437Z,8.70
2022-11-28T11:33:37.446Z,8.30
2022-11-28T11:37:41.191Z,7.90
2022-11-28T11:41:45.200Z,8.50
2022-11-28T11:45:51.278Z,9.90
2022-11-28T11:49:50.147Z,9.60
2022-11-28T11:54:07.575Z,9.50
2022-11-28T11:58:12.531Z,9.10
2022-11-28T12:02:44.707Z,9.10
2022-11-28T12:06:52.987Z,9.30
2022-11-28T12:10:58.015Z,9.10
2022-11-28T12:14:59.972Z,9.30
2022-11-28T12:19:37.253Z,9.70
2022-11-28T12:23:42.179Z,9.40
2022-11-28T12:27:52.769Z,9.10
2022-11-28T12:32:12.409Z,8.80
2022-11-28T12:36:23.149Z,9.50
2022-11-28T12:40:28.029Z,8.90
2022-11-28T12:44:41.762Z,9.60
2022-11-28T12:49:13.647Z,9.10
2022-11-28T12:53:42.827Z,9.00
2022-11-28T12:57:47.979Z,9.10
2022-11-28T13:01:59.197Z,9.60
2022-11-28T13:06:15.945Z,9.20
2022-11-28T13:10:32.929Z,9.30
2022-11-28T13:14:38.200Z,8.80
2022-11-28T13:18:42.600Z,9.10
2022-11-28T13:22:50.640Z,8.90
2022-11-28T13:27:05.144Z,9.40
2022-11-28T13:31:42.133Z,9.00
2022-11-28T13:35:45.943Z,8.30
2022-11-28T13:40:00.205Z,8.00
2022-11-28T13:44:13.283Z,8.20
2022-11-28T13:52:42.748Z,8.70
2022-11-28T13:56:47.288Z,8.10
2022-11-28T14:01:03.960Z,8.50
2022-11-28T14:05:09.357Z,9.20
2022-11-28T14:09:17.580Z,8.50
2022-11-28T14:13:28.762Z,9.00
2022-11-28T14:17:49.007Z,8.50
2022-11-28T14:22:03.331Z,9.20
2022-11-28T14:26:14.174Z,9.20
2022-11-28T14:30:37.776Z,9.50
2022-11-28T14:34:45.644Z,9.30
2022-11-28T14:38:51.147Z,8.90
2022-11-28T14:43:00.945Z,9.00
2022-11-28T14:47:15.542Z,8.80
2022-11-28T14:51:16.909Z,9.20
2022-11-28T14:55:21.935Z,9.50
2022-11-28T14:59:27.097Z,8.80
2022-11-28T15:03:47.612Z,8.60
2022-11-28T15:08:12.387Z,8.90
2022-11-28T15:12:40.511Z,9.60
2022-11-28T15:16:49.876Z,10.00
2022-11-28T15:20:53.570Z,10.10
2022-11-28T15:24:55.002Z,9.30
2022-11-28T15:29:28.778Z,10.10
2022-11-28T15:33:30.617Z,10.20
2022-11-28T15:37:34.254Z,10.30
2022-11-28T15:41:35.792Z,10.40
2022-11-28T15:45:37.448Z,10.60
2022-11-28T15:49:40.708Z,9.70
2022-11-28T15:53:42.331Z,9.40
2022-11-28T15:57:43.735Z,9.80
2022-11-28T16:01:45.594Z,9.80
2022-11-28T16:05:48.832Z,9.80
2022-11-28T16:10:03.104Z,10.30
2022-11-28T16:14:09.395Z,10.30
2022-11-28T16:18:16.211Z,10.80
2022-11-28T16:22:20.204Z,10.70
2022-11-28T16:26:25.787Z,10.50
2022-11-28T16:30:44.279Z,10.60
2022-11-28T16:34:48.005Z,9.90
2022-11-28T16:38:52.208Z,9.60
2022-11-28T16:42:54.775Z,10.00
2022-11-28T16:46:57.826Z,9.80
2022-11-28T16:51:14.835Z,9.60
2022-11-28T16:55:32.612Z,9.10
2022-11-28T16:59:33.886Z,9.10
2022-11-28T17:03:47.937Z,9.10
2022-11-28T17:07:49.372Z,9.40
2022-11-28T17:11:57.357Z,9.10
2022-11-28T17:15:59.085Z,9.10
2022-11-28T17:20:00.409Z,9.20
2022-11-28T17:24:02.286Z,9.30
2022-11-28T17:28:04.941Z,8.80
2022-11-28T17:32:06.982Z,9.10
2022-11-28T17:36:11.306Z,9.40
2022-11-28T17:40:31.420Z,9.90
2022-11-28T17:44:35.698Z,9.80
2022-11-28T17:48:37.074Z,9.90
2022-11-28T17:52:38.410Z,9.80
2022-11-28T17:56:39.569Z,9.70
2022-11-28T18:00:41.061Z,9.70
2022-11-28T18:04:42.314Z,9.90
2022-11-28T18:08:45.520Z,10.40
2022-11-28T18:12:46.730Z,10.10
2022-11-28T18:16:48.150Z,10.10
2022-11-28T18:20:49.284Z,9.90
2022-11-28T18:24:50.535Z,10.10
2022-11-28T18:28:52.335Z,10.70
2022-11-28T18:32:53.777Z,10.40
2022-11-28T18:36:56.925Z,10.60
2022-11-28T18:41:01.973Z,10.40
2022-11-28T18:45:03.564Z,10.00
2022-11-28T18:49:05.048Z,10.50
2022-11-28T18:53:06.368Z,10.40
2022-11-28T18:57:07.988Z,10.30
2022-11-28T19:01:12.485Z,10.50
2022-11-28T19:05:13.797Z,10.50
2022-11-28T19:09:16.279Z,10.60
2022-11-28T19:13:17.744Z,10.60
2022-11-28T19:17:18.862Z,10.50
2022-11-28T19:21:22.493Z,10.70
2022-11-28T19:25:23.783Z,10.40
2022-11-28T19:29:25.098Z,10.50
2022-11-28T19:33:26.413Z,10.60
2022-11-28T19:37:27.500Z,9.80
2022-11-28T19:41:29.556Z,10.50
2022-11-28T19:45:30.918Z,10.80
2022-11-28T19:49:33.805Z,10.60
2022-11-28T19:53:37.408Z,10.30
2022-11-28T19:57:38.707Z,10.30
2022-11-28T20:01:40.129Z,10.70
2022-11-28T20:05:41.828Z,10.80
2022-11-28T20:09:43.695Z,10.30
2022-11-28T20:13:45.968Z,10.70
2022-11-28T20:17:47.135Z,10.50
2022-11-28T20:21:48.374Z,10.70
2022-11-28T20:25:49.766Z,10.90
2022-11-28T20:29:51.039Z,11.00
2022-11-28T20:33:53.462Z,10.80
2022-11-28T20:37:54.753Z,11.00
2022-11-28T20:41:56.201Z,11.00
2022-11-28T20:46:03.061Z,10.60
2022-11-28T20:50:06.426Z,11.00
2022-11-28T20:54:08.125Z,10.80
2022-11-28T20:58:09.337Z,10.90
2022-11-28T21:02:10.962Z,11.10
2022-11-28T21:06:12.558Z,11.00
2022-11-28T21:10:14.132Z,11.10
2022-11-28T21:14:15.911Z,11.10
2022-11-28T21:18:17.176Z,11.20
2022-11-28T21:22:18.152Z,11.30
2022-11-28T21:26:27.406Z,11.20
2022-11-28T21:30:25.617Z,11.10
2022-11-28T21:34:26.821Z,11.00
2022-11-28T21:38:29.469Z,10.10
2022-11-28T21:42:31.552Z,10.70
2022-11-28T21:46:32.616Z,10.60
2022-11-28T21:50:34.119Z,10.80
2022-11-28T21:54:35.301Z,10.90
2022-11-28T21:58:37.010Z,10.80
2022-11-28T22:02:38.127Z,10.80
2022-11-28T22:06:39.647Z,10.80
2022-11-28T22:10:40.756Z,10.90
2022-11-28T22:14:41.813Z,10.90
2022-11-28T22:18:43.713Z,10.70
2022-11-28T22:22:49.664Z,11.10
2022-11-28T22:26:51.741Z,11.00
2022-11-28T22:30:53.021Z,11.10
2022-11-28T22:34:54.235Z,11.00
2022-11-28T22:38:56.981Z,11.20
2022-11-28T22:42:58.221Z,11.20
2022-11-28T22:46:59.612Z,11.10
2022-11-28T22:51:09.261Z,11.30
2022-11-28T22:55:10.538Z,11.40
2022-11-28T22:59:13.015Z,11.40
2022-11-28T23:03:14.149Z,11.30
2022-11-28T23:07:15.692Z,11.00
2022-11-28T23:11:19.453Z,11.20
2022-11-28T23:15:20.729Z,11.30
2022-11-28T23:19:21.857Z,11.10
2022-11-28T23:23:23.006Z,11.30
2022-11-28T23:27:24.079Z,11.50
2022-11-28T23:31:28.688Z,11.30
2022-11-28T23:35:29.940Z,11.30
2022-11-28T23:39:30.929Z,11.30
2022-11-28T23:43:32.215Z,11.30
2022-11-28T23:47:33.245Z,11.50
2022-11-28T23:51:34.863Z,11.60
2022-11-28T23:55:35.958Z,11.50
2022-11-28T23:59:37.157Z,11.40
